Central Wisconsin Airport Mosinee US
ICAO: KCWA
IATA: CWA
Category: Medium
Scheduled Services: No

Elevation: 1277 ft
TransAlt. 18000 ft.

Airport Communications:
ATIS:127.45
AWOS 3:127.45
MINNEAPOLIS CNTR:124.4
CTAF:119.75
GND:121.9
GREEN BAY RDO:122.525
TWR:119.75
UNICOM:122.95

KCWA Zoom In..

If Map Doesn't Load, Click Here

Runways:

(A) RW 08 length 7648 ft width 150 ft
ILS 110.30 / hdg 77

(B) RW 17 length 6501 ft width 150 ft
---- / hdg 170

(C) RW 26 length 7648 ft width 150 ft
---- / hdg 257

(D) RW 35 length 6501 ft width 150 ft
ILS 110.90 / hdg 350

Location; KCWA
Day. 24 / Time. 05.15 Zulu
* Altimeter: 30.13
* Temperature: 11° c. 51.8°f.
* Wind from: 100° Speed 06 kn.
Dewpoint: 11° c.
Visibility: 7 Statute Miles.
Clouds: Clear (automated report).

KCWA 240515Z AUTO 10006KT 7SM CLR 11/11 A3013 RMK AO2


Wind From 100°
Speed 06 kn.

 
 
jpsmedia.com for Web Design worldairports.se 2018   terms of use